sensor_id;sensor_type;location;lat;lon;timestamp;P1;durP1;ratioP1;P2;durP2;ratioP2
24206;SDS011;12351;52.284;9.160;2022-12-31T00:00:34;2.08;;;1.87;;
24206;SDS011;12351;52.284;9.160;2022-12-31T00:03:23;2.25;;;2.05;;
24206;SDS011;12351;52.284;9.160;2022-12-31T00:06:11;2.20;;;1.90;;
24206;SDS011;12351;52.284;9.160;2022-12-31T00:09:03;2.10;;;1.90;;
24206;SDS011;12351;52.284;9.160;2022-12-31T00:11:53;2.40;;;2.10;;
24206;SDS011;12351;52.284;9.160;2022-12-31T00:14:41;2.25;;;1.87;;
24206;SDS011;12351;52.284;9.160;2022-12-31T00:17:30;2.00;;;1.80;;
24206;SDS011;12351;52.284;9.160;2022-12-31T00:20:18;1.70;;;1.60;;
24206;SDS011;12351;52.284;9.160;2022-12-31T00:23:08;2.02;;;1.70;;
24206;SDS011;12351;52.284;9.160;2022-12-31T00:26:01;1.95;;;1.85;;
24206;SDS011;12351;52.284;9.160;2022-12-31T00:28:47;2.00;;;1.90;;
24206;SDS011;12351;52.284;9.160;2022-12-31T00:31:36;2.47;;;2.22;;
24206;SDS011;12351;52.284;9.160;2022-12-31T00:34:24;3.45;;;2.30;;
24206;SDS011;12351;52.284;9.160;2022-12-31T00:37:12;2.37;;;1.90;;
24206;SDS011;12351;52.284;9.160;2022-12-31T00:39:59;2.83;;;1.98;;
24206;SDS011;12351;52.284;9.160;2022-12-31T00:42:47;2.50;;;1.95;;
24206;SDS011;12351;52.284;9.160;2022-12-31T00:45:36;2.12;;;2.02;;
24206;SDS011;12351;52.284;9.160;2022-12-31T00:48:24;3.50;;;2.10;;
24206;SDS011;12351;52.284;9.160;2022-12-31T00:51:13;2.40;;;2.20;;
24206;SDS011;12351;52.284;9.160;2022-12-31T00:54:03;2.12;;;1.92;;
24206;SDS011;12351;52.284;9.160;2022-12-31T00:59:40;2.27;;;2.10;;
24206;SDS011;12351;52.284;9.160;2022-12-31T01:02:28;1.75;;;1.65;;
24206;SDS011;12351;52.284;9.160;2022-12-31T01:05:15;1.80;;;1.35;;
24206;SDS011;12351;52.284;9.160;2022-12-31T01:08:05;1.72;;;1.00;;
24206;SDS011;12351;52.284;9.160;2022-12-31T01:10:53;1.10;;;1.00;;
24206;SDS011;12351;52.284;9.160;2022-12-31T01:13:43;1.30;;;1.20;;
24206;SDS011;12351;52.284;9.160;2022-12-31T01:19:25;1.65;;;1.40;;
24206;SDS011;12351;52.284;9.160;2022-12-31T01:22:15;2.65;;;1.20;;
24206;SDS011;12351;52.284;9.160;2022-12-31T01:25:02;1.20;;;1.10;;
24206;SDS011;12351;52.284;9.160;2022-12-31T01:27:52;1.25;;;1.15;;
24206;SDS011;12351;52.284;9.160;2022-12-31T01:30:39;1.55;;;1.22;;
24206;SDS011;12351;52.284;9.160;2022-12-31T01:33:26;1.50;;;1.40;;
24206;SDS011;12351;52.284;9.160;2022-12-31T01:36:18;1.40;;;1.30;;
24206;SDS011;12351;52.284;9.160;2022-12-31T01:39:07;1.67;;;1.35;;
24206;SDS011;12351;52.284;9.160;2022-12-31T01:41:56;1.40;;;1.30;;
24206;SDS011;12351;52.284;9.160;2022-12-31T01:44:47;1.87;;;1.60;;
24206;SDS011;12351;52.284;9.160;2022-12-31T01:47:38;1.60;;;1.50;;
24206;SDS011;12351;52.284;9.160;2022-12-31T01:50:26;1.50;;;1.40;;
24206;SDS011;12351;52.284;9.160;2022-12-31T01:53:15;2.35;;;1.57;;
24206;SDS011;12351;52.284;9.160;2022-12-31T01:56:07;1.70;;;1.30;;
24206;SDS011;12351;52.284;9.160;2022-12-31T01:58:55;1.52;;;1.10;;
24206;SDS011;12351;52.284;9.160;2022-12-31T02:01:44;1.55;;;1.00;;
24206;SDS011;12351;52.284;9.160;2022-12-31T02:04:33;1.98;;;1.10;;
24206;SDS011;12351;52.284;9.160;2022-12-31T02:07:24;0.85;;;0.65;;
24206;SDS011;12351;52.284;9.160;2022-12-31T02:10:13;3.35;;;0.98;;
24206;SDS011;12351;52.284;9.160;2022-12-31T02:13:01;1.75;;;0.70;;
24206;SDS011;12351;52.284;9.160;2022-12-31T02:30:08;1.60;;;0.40;;
24206;SDS011;12351;52.284;9.160;2022-12-31T02:33:01;0.80;;;0.50;;
24206;SDS011;12351;52.284;9.160;2022-12-31T02:35:50;0.62;;;0.40;;
24206;SDS011;12351;52.284;9.160;2022-12-31T02:38:39;3.62;;;0.60;;
24206;SDS011;12351;52.284;9.160;2022-12-31T02:41:31;1.52;;;0.50;;
24206;SDS011;12351;52.284;9.160;2022-12-31T02:55:30;0.25;;;0.25;;
24206;SDS011;12351;52.284;9.160;2022-12-31T03:01:09;0.50;;;0.30;;
24206;SDS011;12351;52.284;9.160;2022-12-31T03:04:01;0.25;;;0.25;;
24206;SDS011;12351;52.284;9.160;2022-12-31T03:06:51;0.40;;;0.30;;
24206;SDS011;12351;52.284;9.160;2022-12-31T03:09:40;1.00;;;0.40;;
24206;SDS011;12351;52.284;9.160;2022-12-31T03:12:30;0.40;;;0.30;;
24206;SDS011;12351;52.284;9.160;2022-12-31T03:15:21;0.30;;;0.30;;
24206;SDS011;12351;52.284;9.160;2022-12-31T03:18:12;0.50;;;0.10;;
24206;SDS011;12351;52.284;9.160;2022-12-31T03:21:00;1.10;;;0.17;;
24206;SDS011;12351;52.284;9.160;2022-12-31T03:23:49;0.53;;;0.30;;
24206;SDS011;12351;52.284;9.160;2022-12-31T03:26:38;1.62;;;0.13;;
24206;SDS011;12351;52.284;9.160;2022-12-31T03:29:27;2.27;;;0.30;;
24206;SDS011;12351;52.284;9.160;2022-12-31T03:32:14;0.37;;;0.10;;
24206;SDS011;12351;52.284;9.160;2022-12-31T03:35:03;0.20;;;0.17;;
24206;SDS011;12351;52.284;9.160;2022-12-31T03:37:51;3.80;;;0.20;;
24206;SDS011;12351;52.284;9.160;2022-12-31T03:40:40;0.20;;;0.10;;
24206;SDS011;12351;52.284;9.160;2022-12-31T03:43:31;1.85;;;0.20;;
24206;SDS011;12351;52.284;9.160;2022-12-31T03:46:20;0.10;;;0.10;;
24206;SDS011;12351;52.284;9.160;2022-12-31T03:49:08;1.02;;;0.20;;
24206;SDS011;12351;52.284;9.160;2022-12-31T03:51:57;0.85;;;0.23;;
24206;SDS011;12351;52.284;9.160;2022-12-31T03:54:46;0.30;;;0.30;;
24206;SDS011;12351;52.284;9.160;2022-12-31T03:57:35;0.28;;;0.28;;
24206;SDS011;12351;52.284;9.160;2022-12-31T04:00:25;0.20;;;0.20;;
24206;SDS011;12351;52.284;9.160;2022-12-31T04:03:13;0.20;;;0.20;;
24206;SDS011;12351;52.284;9.160;2022-12-31T04:06:04;0.30;;;0.30;;
24206;SDS011;12351;52.284;9.160;2022-12-31T04:08:52;0.30;;;0.20;;
24206;SDS011;12351;52.284;9.160;2022-12-31T04:11:41;1.32;;;0.40;;
24206;SDS011;12351;52.284;9.160;2022-12-31T04:14:30;0.40;;;0.20;;
24206;SDS011;12351;52.284;9.160;2022-12-31T04:17:20;1.15;;;0.28;;
24206;SDS011;12351;52.284;9.160;2022-12-31T04:20:08;0.80;;;0.33;;
24206;SDS011;12351;52.284;9.160;2022-12-31T04:22:56;0.35;;;0.35;;
24206;SDS011;12351;52.284;9.160;2022-12-31T04:25:44;2.00;;;0.35;;
24206;SDS011;12351;52.284;9.160;2022-12-31T04:28:32;4.65;;;0.60;;
24206;SDS011;12351;52.284;9.160;2022-12-31T04:31:20;3.00;;;0.70;;
24206;SDS011;12351;52.284;9.160;2022-12-31T04:34:07;31.70;;;1.42;;
24206;SDS011;12351;52.284;9.160;2022-12-31T04:36:55;3.80;;;0.60;;
24206;SDS011;12351;52.284;9.160;2022-12-31T04:39:42;3.70;;;0.75;;
24206;SDS011;12351;52.284;9.160;2022-12-31T04:42:30;0.70;;;0.70;;
24206;SDS011;12351;52.284;9.160;2022-12-31T04:45:19;0.40;;;0.40;;
24206;SDS011;12351;52.284;9.160;2022-12-31T04:48:07;0.70;;;0.50;;
24206;SDS011;12351;52.284;9.160;2022-12-31T04:50:56;0.62;;;0.40;;
24206;SDS011;12351;52.284;9.160;2022-12-31T04:53:46;0.40;;;0.40;;
24206;SDS011;12351;52.284;9.160;2022-12-31T04:56:33;0.23;;;0.23;;
24206;SDS011;12351;52.284;9.160;2022-12-31T04:59:22;0.25;;;0.20;;
24206;SDS011;12351;52.284;9.160;2022-12-31T05:02:11;0.30;;;0.23;;
24206;SDS011;12351;52.284;9.160;2022-12-31T05:05:00;0.20;;;0.20;;
24206;SDS011;12351;52.284;9.160;2022-12-31T05:07:48;0.42;;;0.10;;
24206;SDS011;12351;52.284;9.160;2022-12-31T05:10:40;0.10;;;0.10;;
24206;SDS011;12351;52.284;9.160;2022-12-31T05:13:27;0.40;;;0.10;;
24206;SDS011;12351;52.284;9.160;2022-12-31T05:16:18;0.35;;;0.13;;
24206;SDS011;12351;52.284;9.160;2022-12-31T05:19:06;0.10;;;0.10;;
24206;SDS011;12351;52.284;9.160;2022-12-31T05:21:55;0.20;;;0.10;;
24206;SDS011;12351;52.284;9.160;2022-12-31T05:24:45;0.20;;;0.20;;
24206;SDS011;12351;52.284;9.160;2022-12-31T05:27:34;0.47;;;0.10;;
24206;SDS011;12351;52.284;9.160;2022-12-31T05:30:25;0.23;;;0.10;;
24206;SDS011;12351;52.284;9.160;2022-12-31T05:33:14;0.57;;;0.10;;
24206;SDS011;12351;52.284;9.160;2022-12-31T05:36:05;0.47;;;0.20;;
24206;SDS011;12351;52.284;9.160;2022-12-31T05:38:53;0.42;;;0.20;;
24206;SDS011;12351;52.284;9.160;2022-12-31T05:41:41;0.20;;;0.20;;
24206;SDS011;12351;52.284;9.160;2022-12-31T05:44:33;0.10;;;0.10;;
24206;SDS011;12351;52.284;9.160;2022-12-31T05:47:20;0.20;;;0.17;;
24206;SDS011;12351;52.284;9.160;2022-12-31T05:50:09;0.80;;;0.10;;
24206;SDS011;12351;52.284;9.160;2022-12-31T05:52:58;0.55;;;0.20;;
24206;SDS011;12351;52.284;9.160;2022-12-31T05:55:47;0.40;;;0.20;;
24206;SDS011;12351;52.284;9.160;2022-12-31T05:58:36;0.10;;;0.10;;
24206;SDS011;12351;52.284;9.160;2022-12-31T06:01:23;0.50;;;0.10;;
24206;SDS011;12351;52.284;9.160;2022-12-31T06:04:10;0.15;;;0.10;;
24206;SDS011;12351;52.284;9.160;2022-12-31T06:06:57;0.30;;;0.20;;
24206;SDS011;12351;52.284;9.160;2022-12-31T06:09:46;0.13;;;0.10;;
24206;SDS011;12351;52.284;9.160;2022-12-31T06:12:33;1.35;;;0.20;;
24206;SDS011;12351;52.284;9.160;2022-12-31T06:15:22;0.20;;;0.20;;
24206;SDS011;12351;52.284;9.160;2022-12-31T06:18:10;0.28;;;0.20;;
24206;SDS011;12351;52.284;9.160;2022-12-31T06:20:57;0.28;;;0.13;;
24206;SDS011;12351;52.284;9.160;2022-12-31T06:23:44;1.55;;;0.10;;
24206;SDS011;12351;52.284;9.160;2022-12-31T06:26:33;0.10;;;0.10;;
24206;SDS011;12351;52.284;9.160;2022-12-31T06:29:22;0.47;;;0.20;;
24206;SDS011;12351;52.284;9.160;2022-12-31T06:32:10;0.33;;;0.20;;
24206;SDS011;12351;52.284;9.160;2022-12-31T06:34:58;0.40;;;0.20;;
24206;SDS011;12351;52.284;9.160;2022-12-31T06:37:46;0.60;;;0.30;;
24206;SDS011;12351;52.284;9.160;2022-12-31T06:40:35;0.30;;;0.30;;
24206;SDS011;12351;52.284;9.160;2022-12-31T06:43:24;0.65;;;0.40;;
24206;SDS011;12351;52.284;9.160;2022-12-31T06:46:14;1.27;;;0.50;;
24206;SDS011;12351;52.284;9.160;2022-12-31T06:49:02;1.72;;;0.50;;
24206;SDS011;12351;52.284;9.160;2022-12-31T06:51:50;2.17;;;0.60;;
24206;SDS011;12351;52.284;9.160;2022-12-31T06:54:39;0.95;;;0.78;;
24206;SDS011;12351;52.284;9.160;2022-12-31T06:57:27;0.88;;;0.62;;
24206;SDS011;12351;52.284;9.160;2022-12-31T07:00:15;1.27;;;0.60;;
24206;SDS011;12351;52.284;9.160;2022-12-31T07:05:57;64.30;;;2.95;;
24206;SDS011;12351;52.284;9.160;2022-12-31T07:11:35;113.90;;;2.72;;
24206;SDS011;12351;52.284;9.160;2022-12-31T07:14:28;3.15;;;1.72;;
24206;SDS011;12351;52.284;9.160;2022-12-31T07:20:08;2.35;;;1.40;;
24206;SDS011;12351;52.284;9.160;2022-12-31T07:22:58;0.90;;;0.90;;
24206;SDS011;12351;52.284;9.160;2022-12-31T07:25:50;5.08;;;1.12;;
24206;SDS011;12351;52.284;9.160;2022-12-31T07:31:31;0.98;;;0.90;;
24206;SDS011;12351;52.284;9.160;2022-12-31T07:37:11;1.10;;;1.10;;
24206;SDS011;12351;52.284;9.160;2022-12-31T07:40:02;3.25;;;1.35;;
24206;SDS011;12351;52.284;9.160;2022-12-31T07:48:27;1.50;;;1.40;;
24206;SDS011;12351;52.284;9.160;2022-12-31T07:51:18;2.90;;;1.30;;
24206;SDS011;12351;52.284;9.160;2022-12-31T07:54:06;1.27;;;1.17;;
24206;SDS011;12351;52.284;9.160;2022-12-31T07:56:54;1.40;;;1.30;;
24206;SDS011;12351;52.284;9.160;2022-12-31T07:59:47;2.70;;;1.25;;
24206;SDS011;12351;52.284;9.160;2022-12-31T08:08:16;1.15;;;1.00;;
24206;SDS011;12351;52.284;9.160;2022-12-31T08:13:53;2.02;;;0.90;;
24206;SDS011;12351;52.284;9.160;2022-12-31T08:16:47;1.87;;;0.80;;
24206;SDS011;12351;52.284;9.160;2022-12-31T08:19:36;0.78;;;0.78;;
24206;SDS011;12351;52.284;9.160;2022-12-31T08:30:53;1.20;;;1.00;;
24206;SDS011;12351;52.284;9.160;2022-12-31T08:36:37;2.33;;;1.00;;
24206;SDS011;12351;52.284;9.160;2022-12-31T08:39:26;2.80;;;1.10;;
24206;SDS011;12351;52.284;9.160;2022-12-31T08:42:16;1.50;;;1.20;;
24206;SDS011;12351;52.284;9.160;2022-12-31T08:50:42;2.02;;;0.90;;
24206;SDS011;12351;52.284;9.160;2022-12-31T08:53:31;1.60;;;0.88;;
24206;SDS011;12351;52.284;9.160;2022-12-31T09:07:33;2.17;;;0.80;;
24206;SDS011;12351;52.284;9.160;2022-12-31T09:10:23;3.00;;;0.85;;
24206;SDS011;12351;52.284;9.160;2022-12-31T09:18:53;2.08;;;0.55;;
24206;SDS011;12351;52.284;9.160;2022-12-31T09:21:40;3.67;;;0.60;;
24206;SDS011;12351;52.284;9.160;2022-12-31T09:24:29;4.35;;;0.70;;
24206;SDS011;12351;52.284;9.160;2022-12-31T09:30:10;1.70;;;0.62;;
24206;SDS011;12351;52.284;9.160;2022-12-31T09:35:51;3.00;;;0.60;;
24206;SDS011;12351;52.284;9.160;2022-12-31T09:38:43;3.25;;;0.53;;
24206;SDS011;12351;52.284;9.160;2022-12-31T10:07:05;1.87;;;0.50;;
24206;SDS011;12351;52.284;9.160;2022-12-31T10:24:07;2.42;;;0.40;;
24206;SDS011;12351;52.284;9.160;2022-12-31T10:35:26;1.32;;;0.40;;
24206;SDS011;12351;52.284;9.160;2022-12-31T10:46:48;1.22;;;0.40;;
24206;SDS011;12351;52.284;9.160;2022-12-31T11:23:36;3.17;;;0.88;;
24206;SDS011;12351;52.284;9.160;2022-12-31T11:26:28;2.08;;;1.00;;
24206;SDS011;12351;52.284;9.160;2022-12-31T11:43:30;1.98;;;0.93;;
24206;SDS011;12351;52.284;9.160;2022-12-31T11:54:52;1.67;;;0.65;;
24206;SDS011;12351;52.284;9.160;2022-12-31T11:57:38;1.62;;;0.70;;
24206;SDS011;12351;52.284;9.160;2022-12-31T12:00:28;1.22;;;0.62;;
24206;SDS011;12351;52.284;9.160;2022-12-31T12:03:17;1.55;;;0.75;;
24206;SDS011;12351;52.284;9.160;2022-12-31T12:06:10;2.00;;;1.27;;
24206;SDS011;12351;52.284;9.160;2022-12-31T12:09:03;2.45;;;0.68;;
24206;SDS011;12351;52.284;9.160;2022-12-31T12:11:56;1.15;;;0.60;;
24206;SDS011;12351;52.284;9.160;2022-12-31T12:14:41;2.00;;;0.80;;
24206;SDS011;12351;52.284;9.160;2022-12-31T12:17:31;4.62;;;0.70;;
24206;SDS011;12351;52.284;9.160;2022-12-31T12:23:15;2.60;;;0.78;;
24206;SDS011;12351;52.284;9.160;2022-12-31T12:26:05;1.70;;;0.62;;
24206;SDS011;12351;52.284;9.160;2022-12-31T12:28:53;2.33;;;0.75;;
24206;SDS011;12351;52.284;9.160;2022-12-31T12:34:35;13.05;;;7.37;;
24206;SDS011;12351;52.284;9.160;2022-12-31T12:37:26;2.05;;;0.70;;
24206;SDS011;12351;52.284;9.160;2022-12-31T12:40:18;2.12;;;0.70;;
24206;SDS011;12351;52.284;9.160;2022-12-31T12:43:20;2.37;;;0.70;;
24206;SDS011;12351;52.284;9.160;2022-12-31T12:45:59;1.32;;;0.70;;
24206;SDS011;12351;52.284;9.160;2022-12-31T12:48:52;3.60;;;0.70;;
24206;SDS011;12351;52.284;9.160;2022-12-31T12:54:34;3.50;;;0.93;;
24206;SDS011;12351;52.284;9.160;2022-12-31T13:11:30;2.52;;;0.85;;
24206;SDS011;12351;52.284;9.160;2022-12-31T13:14:18;3.33;;;1.02;;
24206;SDS011;12351;52.284;9.160;2022-12-31T13:25:31;3.17;;;0.80;;
24206;SDS011;12351;52.284;9.160;2022-12-31T13:28:16;2.30;;;1.10;;
24206;SDS011;12351;52.284;9.160;2022-12-31T13:31:05;3.70;;;1.17;;
24206;SDS011;12351;52.284;9.160;2022-12-31T13:33:57;2.52;;;0.88;;
24206;SDS011;12351;52.284;9.160;2022-12-31T13:36:44;3.27;;;0.82;;
24206;SDS011;12351;52.284;9.160;2022-12-31T13:39:36;4.30;;;0.95;;
24206;SDS011;12351;52.284;9.160;2022-12-31T13:42:30;3.42;;;0.93;;
24206;SDS011;12351;52.284;9.160;2022-12-31T13:45:19;6.35;;;1.70;;
24206;SDS011;12351;52.284;9.160;2022-12-31T13:48:11;3.22;;;1.02;;
24206;SDS011;12351;52.284;9.160;2022-12-31T13:56:38;3.75;;;1.07;;
24206;SDS011;12351;52.284;9.160;2022-12-31T13:59:30;2.37;;;1.00;;
24206;SDS011;12351;52.284;9.160;2022-12-31T14:05:12;2.35;;;0.70;;
24206;SDS011;12351;52.284;9.160;2022-12-31T14:07:59;4.47;;;1.55;;
24206;SDS011;12351;52.284;9.160;2022-12-31T14:13:44;1.72;;;0.80;;
24206;SDS011;12351;52.284;9.160;2022-12-31T14:25:07;2.58;;;0.78;;
24206;SDS011;12351;52.284;9.160;2022-12-31T14:27:55;4.50;;;1.00;;
24206;SDS011;12351;52.284;9.160;2022-12-31T14:30:45;2.10;;;0.70;;
24206;SDS011;12351;52.284;9.160;2022-12-31T14:41:57;1.40;;;0.70;;
24206;SDS011;12351;52.284;9.160;2022-12-31T14:50:28;2.80;;;0.80;;
24206;SDS011;12351;52.284;9.160;2022-12-31T14:59:01;3.47;;;0.88;;
24206;SDS011;12351;52.284;9.160;2022-12-31T15:01:50;1.98;;;0.75;;
24206;SDS011;12351;52.284;9.160;2022-12-31T15:07:29;2.70;;;0.80;;
24206;SDS011;12351;52.284;9.160;2022-12-31T15:10:20;1.90;;;0.90;;
24206;SDS011;12351;52.284;9.160;2022-12-31T15:16:02;1.15;;;0.70;;
24206;SDS011;12351;52.284;9.160;2022-12-31T15:24:29;2.58;;;0.90;;
24206;SDS011;12351;52.284;9.160;2022-12-31T15:27:26;2.10;;;0.80;;
24206;SDS011;12351;52.284;9.160;2022-12-31T15:30:25;4.00;;;0.90;;
24206;SDS011;12351;52.284;9.160;2022-12-31T15:33:01;1.92;;;0.78;;
24206;SDS011;12351;52.284;9.160;2022-12-31T15:35:51;3.12;;;0.95;;
24206;SDS011;12351;52.284;9.160;2022-12-31T15:38:40;1.37;;;0.80;;
24206;SDS011;12351;52.284;9.160;2022-12-31T15:44:23;2.30;;;1.00;;
24206;SDS011;12351;52.284;9.160;2022-12-31T15:50:00;2.33;;;0.70;;
24206;SDS011;12351;52.284;9.160;2022-12-31T15:52:51;2.80;;;1.00;;
24206;SDS011;12351;52.284;9.160;2022-12-31T15:55:41;2.72;;;1.00;;
24206;SDS011;12351;52.284;9.160;2022-12-31T15:58:33;5.17;;;1.10;;
24206;SDS011;12351;52.284;9.160;2022-12-31T16:01:24;3.10;;;1.07;;
24206;SDS011;12351;52.284;9.160;2022-12-31T16:04:14;4.12;;;1.15;;
24206;SDS011;12351;52.284;9.160;2022-12-31T16:07:02;2.60;;;0.90;;
24206;SDS011;12351;52.284;9.160;2022-12-31T16:09:51;3.15;;;1.10;;
24206;SDS011;12351;52.284;9.160;2022-12-31T16:12:43;5.62;;;1.10;;
24206;SDS011;12351;52.284;9.160;2022-12-31T16:15:31;2.83;;;0.85;;
24206;SDS011;12351;52.284;9.160;2022-12-31T16:18:21;4.55;;;1.42;;
24206;SDS011;12351;52.284;9.160;2022-12-31T16:24:03;2.30;;;0.98;;
24206;SDS011;12351;52.284;9.160;2022-12-31T16:26:52;3.12;;;1.10;;
24206;SDS011;12351;52.284;9.160;2022-12-31T16:29:43;3.42;;;1.10;;
24206;SDS011;12351;52.284;9.160;2022-12-31T16:32:34;3.57;;;1.07;;
24206;SDS011;12351;52.284;9.160;2022-12-31T16:35:25;5.58;;;1.17;;
24206;SDS011;12351;52.284;9.160;2022-12-31T16:38:15;4.40;;;1.20;;
24206;SDS011;12351;52.284;9.160;2022-12-31T16:43:53;2.87;;;1.40;;
24206;SDS011;12351;52.284;9.160;2022-12-31T16:46:41;5.25;;;1.60;;
24206;SDS011;12351;52.284;9.160;2022-12-31T16:49:31;5.22;;;1.30;;
24206;SDS011;12351;52.284;9.160;2022-12-31T16:52:23;4.58;;;1.15;;
24206;SDS011;12351;52.284;9.160;2022-12-31T17:00:52;2.62;;;0.98;;
24206;SDS011;12351;52.284;9.160;2022-12-31T17:03:44;4.05;;;1.22;;
24206;SDS011;12351;52.284;9.160;2022-12-31T17:06:33;2.90;;;0.90;;
24206;SDS011;12351;52.284;9.160;2022-12-31T17:09:21;5.45;;;1.00;;
24206;SDS011;12351;52.284;9.160;2022-12-31T17:12:13;3.00;;;1.20;;
24206;SDS011;12351;52.284;9.160;2022-12-31T17:15:02;1.92;;;1.20;;
24206;SDS011;12351;52.284;9.160;2022-12-31T17:17:55;3.60;;;0.93;;
24206;SDS011;12351;52.284;9.160;2022-12-31T17:20:44;3.17;;;1.00;;
24206;SDS011;12351;52.284;9.160;2022-12-31T17:23:35;3.65;;;1.00;;
24206;SDS011;12351;52.284;9.160;2022-12-31T17:26:25;5.15;;;1.10;;
24206;SDS011;12351;52.284;9.160;2022-12-31T17:29:17;3.83;;;1.12;;
24206;SDS011;12351;52.284;9.160;2022-12-31T17:32:05;3.92;;;1.07;;
24206;SDS011;12351;52.284;9.160;2022-12-31T17:34:54;3.70;;;0.95;;
24206;SDS011;12351;52.284;9.160;2022-12-31T17:37:42;1.30;;;1.00;;
24206;SDS011;12351;52.284;9.160;2022-12-31T17:40:34;2.65;;;1.10;;
24206;SDS011;12351;52.284;9.160;2022-12-31T17:43:23;3.72;;;1.52;;
24206;SDS011;12351;52.284;9.160;2022-12-31T17:46:13;2.87;;;1.20;;
24206;SDS011;12351;52.284;9.160;2022-12-31T17:49:02;6.45;;;1.30;;
24206;SDS011;12351;52.284;9.160;2022-12-31T17:51:50;5.53;;;1.47;;
24206;SDS011;12351;52.284;9.160;2022-12-31T17:54:39;3.95;;;1.17;;
24206;SDS011;12351;52.284;9.160;2022-12-31T17:57:28;2.92;;;1.10;;
24206;SDS011;12351;52.284;9.160;2022-12-31T18:01:17;3.56;;;1.51;;
24206;SDS011;12351;52.284;9.160;2022-12-31T18:04:08;4.07;;;1.30;;
24206;SDS011;12351;52.284;9.160;2022-12-31T18:06:55;7.10;;;1.80;;
24206;SDS011;12351;52.284;9.160;2022-12-31T18:13:53;3.27;;;1.10;;
24206;SDS011;12351;52.284;9.160;2022-12-31T18:16:42;2.98;;;1.10;;
24206;SDS011;12351;52.284;9.160;2022-12-31T18:19:31;4.05;;;1.10;;
24206;SDS011;12351;52.284;9.160;2022-12-31T18:22:20;3.75;;;1.12;;
24206;SDS011;12351;52.284;9.160;2022-12-31T18:25:10;2.45;;;1.22;;
24206;SDS011;12351;52.284;9.160;2022-12-31T18:27:58;4.22;;;1.20;;
24206;SDS011;12351;52.284;9.160;2022-12-31T18:30:47;3.77;;;1.22;;
24206;SDS011;12351;52.284;9.160;2022-12-31T18:33:35;3.60;;;0.90;;
24206;SDS011;12351;52.284;9.160;2022-12-31T18:36:23;2.85;;;1.20;;
24206;SDS011;12351;52.284;9.160;2022-12-31T18:39:12;5.03;;;1.10;;
24206;SDS011;12351;52.284;9.160;2022-12-31T18:41:59;4.20;;;1.42;;
24206;SDS011;12351;52.284;9.160;2022-12-31T18:44:47;4.87;;;1.17;;
24206;SDS011;12351;52.284;9.160;2022-12-31T18:47:35;4.78;;;1.20;;
24206;SDS011;12351;52.284;9.160;2022-12-31T18:50:23;5.15;;;1.12;;
24206;SDS011;12351;52.284;9.160;2022-12-31T18:53:13;4.78;;;1.32;;
24206;SDS011;12351;52.284;9.160;2022-12-31T18:56:01;7.28;;;1.40;;
24206;SDS011;12351;52.284;9.160;2022-12-31T18:58:50;6.25;;;1.15;;
24206;SDS011;12351;52.284;9.160;2022-12-31T19:01:38;3.35;;;1.40;;
24206;SDS011;12351;52.284;9.160;2022-12-31T19:04:28;2.60;;;1.25;;
24206;SDS011;12351;52.284;9.160;2022-12-31T19:07:16;3.52;;;1.15;;
24206;SDS011;12351;52.284;9.160;2022-12-31T19:10:04;2.52;;;1.05;;
24206;SDS011;12351;52.284;9.160;2022-12-31T19:12:53;4.03;;;1.10;;
24206;SDS011;12351;52.284;9.160;2022-12-31T19:15:43;5.12;;;1.40;;
24206;SDS011;12351;52.284;9.160;2022-12-31T19:18:32;6.78;;;1.20;;
24206;SDS011;12351;52.284;9.160;2022-12-31T19:21:20;3.62;;;1.30;;
24206;SDS011;12351;52.284;9.160;2022-12-31T19:24:10;3.75;;;1.10;;
24206;SDS011;12351;52.284;9.160;2022-12-31T19:26:59;4.85;;;1.22;;
24206;SDS011;12351;52.284;9.160;2022-12-31T19:29:48;4.92;;;1.25;;
24206;SDS011;12351;52.284;9.160;2022-12-31T19:32:37;2.90;;;1.17;;
24206;SDS011;12351;52.284;9.160;2022-12-31T19:35:25;3.10;;;1.32;;
24206;SDS011;12351;52.284;9.160;2022-12-31T19:40:59;5.97;;;1.50;;
24206;SDS011;12351;52.284;9.160;2022-12-31T19:43:47;3.98;;;1.27;;
24206;SDS011;12351;52.284;9.160;2022-12-31T19:46:35;4.42;;;1.60;;
24206;SDS011;12351;52.284;9.160;2022-12-31T19:49:23;4.20;;;1.40;;
24206;SDS011;12351;52.284;9.160;2022-12-31T19:52:11;6.35;;;1.65;;
24206;SDS011;12351;52.284;9.160;2022-12-31T19:54:58;3.52;;;1.50;;
24206;SDS011;12351;52.284;9.160;2022-12-31T19:57:47;5.80;;;1.52;;
24206;SDS011;12351;52.284;9.160;2022-12-31T20:00:35;4.62;;;1.32;;
24206;SDS011;12351;52.284;9.160;2022-12-31T20:03:25;6.08;;;1.60;;
24206;SDS011;12351;52.284;9.160;2022-12-31T20:06:15;5.12;;;1.20;;
24206;SDS011;12351;52.284;9.160;2022-12-31T20:09:03;4.87;;;1.40;;
24206;SDS011;12351;52.284;9.160;2022-12-31T20:11:52;4.47;;;1.35;;
24206;SDS011;12351;52.284;9.160;2022-12-31T20:14:41;2.87;;;1.32;;
24206;SDS011;12351;52.284;9.160;2022-12-31T20:17:29;5.22;;;1.70;;
24206;SDS011;12351;52.284;9.160;2022-12-31T20:20:16;7.08;;;1.60;;
24206;SDS011;12351;52.284;9.160;2022-12-31T20:23:05;7.10;;;2.10;;
24206;SDS011;12351;52.284;9.160;2022-12-31T20:25:55;4.90;;;1.98;;
24206;SDS011;12351;52.284;9.160;2022-12-31T20:28:43;5.12;;;1.22;;
24206;SDS011;12351;52.284;9.160;2022-12-31T20:31:33;7.25;;;1.40;;
24206;SDS011;12351;52.284;9.160;2022-12-31T20:34:21;4.03;;;1.37;;
24206;SDS011;12351;52.284;9.160;2022-12-31T20:37:08;6.90;;;1.40;;
24206;SDS011;12351;52.284;9.160;2022-12-31T20:39:58;7.40;;;1.80;;
24206;SDS011;12351;52.284;9.160;2022-12-31T20:42:46;4.67;;;1.65;;
24206;SDS011;12351;52.284;9.160;2022-12-31T20:45:38;6.58;;;1.65;;
24206;SDS011;12351;52.284;9.160;2022-12-31T20:48:28;8.53;;;1.90;;
24206;SDS011;12351;52.284;9.160;2022-12-31T20:51:17;6.12;;;1.40;;
24206;SDS011;12351;52.284;9.160;2022-12-31T20:54:08;4.00;;;1.62;;
24206;SDS011;12351;52.284;9.160;2022-12-31T20:56:58;7.70;;;1.80;;
24206;SDS011;12351;52.284;9.160;2022-12-31T20:59:46;3.80;;;1.37;;
24206;SDS011;12351;52.284;9.160;2022-12-31T21:02:33;8.40;;;1.98;;
24206;SDS011;12351;52.284;9.160;2022-12-31T21:05:21;6.05;;;1.60;;
24206;SDS011;12351;52.284;9.160;2022-12-31T21:08:10;5.17;;;1.40;;
24206;SDS011;12351;52.284;9.160;2022-12-31T21:10:57;7.37;;;1.87;;
24206;SDS011;12351;52.284;9.160;2022-12-31T21:13:46;4.10;;;1.50;;
24206;SDS011;12351;52.284;9.160;2022-12-31T21:16:34;5.78;;;1.50;;
24206;SDS011;12351;52.284;9.160;2022-12-31T21:19:21;5.08;;;1.57;;
24206;SDS011;12351;52.284;9.160;2022-12-31T21:22:08;5.17;;;1.67;;
24206;SDS011;12351;52.284;9.160;2022-12-31T21:24:57;6.80;;;2.10;;
24206;SDS011;12351;52.284;9.160;2022-12-31T21:27:47;4.25;;;1.50;;
24206;SDS011;12351;52.284;9.160;2022-12-31T21:30:36;7.05;;;1.75;;
24206;SDS011;12351;52.284;9.160;2022-12-31T21:33:25;7.67;;;1.82;;
24206;SDS011;12351;52.284;9.160;2022-12-31T21:36:15;9.55;;;1.60;;
24206;SDS011;12351;52.284;9.160;2022-12-31T21:39:02;7.05;;;1.70;;
24206;SDS011;12351;52.284;9.160;2022-12-31T21:41:51;6.58;;;1.80;;
24206;SDS011;12351;52.284;9.160;2022-12-31T21:44:41;5.45;;;1.77;;
24206;SDS011;12351;52.284;9.160;2022-12-31T21:47:29;10.65;;;2.47;;
24206;SDS011;12351;52.284;9.160;2022-12-31T21:50:19;6.55;;;1.80;;
24206;SDS011;12351;52.284;9.160;2022-12-31T21:53:07;5.05;;;1.80;;
24206;SDS011;12351;52.284;9.160;2022-12-31T21:55:55;10.35;;;2.02;;
24206;SDS011;12351;52.284;9.160;2022-12-31T21:58:45;7.67;;;1.98;;
24206;SDS011;12351;52.284;9.160;2022-12-31T22:01:35;7.92;;;2.02;;
24206;SDS011;12351;52.284;9.160;2022-12-31T22:04:24;5.83;;;1.57;;
24206;SDS011;12351;52.284;9.160;2022-12-31T22:07:12;7.33;;;2.12;;
24206;SDS011;12351;52.284;9.160;2022-12-31T22:10:01;8.65;;;2.40;;
24206;SDS011;12351;52.284;9.160;2022-12-31T22:12:49;16.23;;;1.80;;
24206;SDS011;12351;52.284;9.160;2022-12-31T22:15:36;8.90;;;2.08;;
24206;SDS011;12351;52.284;9.160;2022-12-31T22:18:27;9.75;;;2.27;;
24206;SDS011;12351;52.284;9.160;2022-12-31T22:21:16;6.92;;;1.90;;